createdAt,value
2019-01-18T00:01:06.887Z,53.19
2019-01-18T00:03:35.050Z,53.08
2019-01-18T00:06:03.240Z,53.20
2019-01-18T00:08:31.412Z,52.99
2019-01-18T00:10:59.591Z,53.03
2019-01-18T00:13:27.724Z,53.01
2019-01-18T00:15:55.908Z,53.02
2019-01-18T00:21:11.252Z,53.02
2019-01-18T00:23:39.423Z,52.96
2019-01-18T00:26:07.574Z,52.92
2019-01-18T00:28:35.704Z,52.87
2019-01-18T00:31:03.869Z,52.81
2019-01-18T00:33:32.012Z,52.99
2019-01-18T00:36:00.164Z,52.91
2019-01-18T00:38:28.316Z,52.89
2019-01-18T00:40:56.507Z,52.69
2019-01-18T00:43:24.689Z,52.84
2019-01-18T00:45:52.849Z,52.87
2019-01-18T00:48:21.144Z,52.88
2019-01-18T00:50:49.371Z,52.84
2019-01-18T00:53:17.549Z,53.00
2019-01-18T00:55:45.704Z,52.94
2019-01-18T00:58:14.016Z,52.93
2019-01-18T01:00:42.224Z,52.83
2019-01-18T01:03:10.418Z,52.93
2019-01-18T01:05:38.574Z,52.83
2019-01-18T01:08:06.787Z,52.87
2019-01-18T01:10:35.049Z,52.89
2019-01-18T01:13:22.712Z,52.70
2019-01-18T01:15:50.863Z,52.90
2019-01-18T01:18:19.023Z,52.83
2019-01-18T01:20:47.181Z,52.95
2019-01-18T01:23:15.329Z,53.05
2019-01-18T01:25:43.468Z,52.93
2019-01-18T01:28:11.625Z,53.13
2019-01-18T01:30:39.785Z,53.04
2019-01-18T01:35:56.631Z,53.06
2019-01-18T01:38:43.861Z,52.99
2019-01-18T01:41:31.094Z,52.84
2019-01-18T01:43:59.297Z,52.88
2019-01-18T01:46:27.483Z,53.11
2019-01-18T01:48:55.657Z,53.03
2019-01-18T01:51:42.930Z,53.04
2019-01-18T01:54:11.021Z,52.96
2019-01-18T01:56:39.342Z,52.87
2019-01-18T01:59:26.399Z,52.96
2019-01-18T02:01:54.542Z,52.77
2019-01-18T02:04:22.700Z,52.89
2019-01-18T02:06:50.937Z,52.91
2019-01-18T02:09:38.156Z,52.88
2019-01-18T02:12:25.428Z,52.81
2019-01-18T02:14:53.603Z,52.78
2019-01-18T02:17:21.760Z,52.92
2019-01-18T02:22:29.839Z,52.82
2019-01-18T02:27:32.287Z,52.88
2019-01-18T02:30:00.438Z,52.95
2019-01-18T02:32:28.658Z,52.94
2019-01-18T02:34:56.815Z,52.88
2019-01-18T02:37:24.997Z,52.85
2019-01-18T02:39:53.192Z,52.79
2019-01-18T02:42:21.337Z,52.95
2019-01-18T02:45:08.391Z,52.84
2019-01-18T02:47:36.534Z,52.73
2019-01-18T02:50:05.374Z,52.71
2019-01-18T02:52:33.530Z,52.82
2019-01-18T02:55:28.426Z,52.84
2019-01-18T02:57:50.699Z,52.75
2019-01-18T03:00:19.832Z,52.83
2019-01-18T03:02:47.993Z,52.88
2019-01-18T03:05:16.738Z,52.94
2019-01-18T03:07:44.867Z,52.74
2019-01-18T03:10:36.264Z,52.88
2019-01-18T03:13:04.403Z,52.77
2019-01-18T03:15:32.572Z,52.90
2019-01-18T03:18:19.634Z,52.80
2019-01-18T03:20:47.776Z,52.76
2019-01-18T03:23:15.952Z,52.68
2019-01-18T03:25:44.132Z,52.72
2019-01-18T03:28:12.304Z,52.93
2019-01-18T03:33:27.605Z,52.84
2019-01-18T03:36:14.657Z,52.85
2019-01-18T03:38:42.830Z,52.95
2019-01-18T03:41:10.986Z,53.03
2019-01-18T03:43:39.147Z,53.02
2019-01-18T03:46:07.274Z,52.86
2019-01-18T03:48:35.438Z,53.09
2019-01-18T03:51:03.589Z,52.93
2019-01-18T03:53:31.777Z,52.95
2019-01-18T03:55:59.944Z,53.00
2019-01-18T03:58:28.093Z,52.99
2019-01-18T04:00:56.248Z,52.91
2019-01-18T04:03:24.423Z,52.87
2019-01-18T04:05:53.050Z,52.84
2019-01-18T04:13:46.408Z,52.90
2019-01-18T04:16:14.602Z,52.91
2019-01-18T04:18:42.749Z,53.01
2019-01-18T04:21:10.965Z,52.81
2019-01-18T04:23:40.276Z,52.87
2019-01-18T04:26:08.427Z,53.31
2019-01-18T04:28:37.854Z,53.36
2019-01-18T04:31:06.091Z,53.46
2019-01-18T04:33:34.290Z,53.28
2019-01-18T04:36:03.331Z,53.25
2019-01-18T04:38:32.171Z,53.25
2019-01-18T04:41:00.530Z,53.21
2019-01-18T04:43:28.736Z,53.21
2019-01-18T04:45:57.044Z,53.24
2019-01-18T04:48:26.493Z,53.31
2019-01-18T04:50:54.688Z,53.27
2019-01-18T04:53:22.869Z,53.39
2019-01-18T04:55:51.041Z,53.24
2019-01-18T04:58:19.226Z,53.26
2019-01-18T05:00:47.408Z,53.34
2019-01-18T05:03:15.565Z,53.27
2019-01-18T05:05:43.862Z,53.20
2019-01-18T05:08:12.045Z,52.96
2019-01-18T05:10:40.230Z,53.18
2019-01-18T05:13:08.403Z,53.28
2019-01-18T05:15:36.561Z,53.25
2019-01-18T05:18:04.750Z,53.30
2019-01-18T05:20:32.904Z,53.23
2019-01-18T05:23:01.152Z,53.22
2019-01-18T05:25:29.338Z,53.11
2019-01-18T05:27:57.485Z,53.13
2019-01-18T05:30:26.564Z,53.22
2019-01-18T05:32:54.733Z,53.04
2019-01-18T05:35:22.885Z,53.08
2019-01-18T05:37:51.064Z,53.14
2019-01-18T05:40:19.518Z,52.97
2019-01-18T05:42:47.694Z,52.96
2019-01-18T05:45:16.728Z,52.96
2019-01-18T05:47:44.865Z,52.94
2019-01-18T05:50:17.085Z,52.94
2019-01-18T05:52:45.250Z,52.95
2019-01-18T05:55:13.571Z,53.01
2019-01-18T05:57:41.726Z,52.89
2019-01-18T06:00:12.570Z,52.95
2019-01-18T06:02:40.735Z,52.90
2019-01-18T06:05:10.180Z,53.00
2019-01-18T06:07:38.333Z,53.01
2019-01-18T06:10:06.552Z,52.94
2019-01-18T06:12:34.714Z,53.16
2019-01-18T06:15:02.869Z,53.28
2019-01-18T06:17:31.067Z,53.20
2019-01-18T06:19:59.208Z,53.24
2019-01-18T06:22:27.393Z,53.08
2019-01-18T06:24:55.684Z,53.19
2019-01-18T06:27:23.872Z,53.11
2019-01-18T06:29:52.009Z,53.08
2019-01-18T06:32:20.208Z,53.19
2019-01-18T06:34:48.381Z,53.08
2019-01-18T06:37:16.543Z,53.22
2019-01-18T06:39:44.769Z,53.24
2019-01-18T06:42:12.986Z,53.23
2019-01-18T06:44:41.162Z,52.99
2019-01-18T06:47:09.346Z,53.08
2019-01-18T06:49:37.541Z,53.07
2019-01-18T06:52:05.782Z,53.18
2019-01-18T06:54:33.952Z,53.20
2019-01-18T06:57:02.145Z,53.07
2019-01-18T06:59:30.405Z,53.14
2019-01-18T07:01:58.582Z,52.97
2019-01-18T07:04:26.836Z,53.09
2019-01-18T07:06:54.992Z,53.18
2019-01-18T07:09:23.196Z,53.11
2019-01-18T07:11:51.379Z,52.91
2019-01-18T07:14:19.562Z,52.72
2019-01-18T07:16:47.701Z,52.48
2019-01-18T07:19:15.884Z,52.34
2019-01-18T07:21:44.004Z,52.32
2019-01-18T07:24:12.140Z,52.04
2019-01-18T07:26:40.271Z,51.62
2019-01-18T07:29:08.465Z,51.47
2019-01-18T07:31:36.600Z,51.38
2019-01-18T07:34:04.760Z,51.25
2019-01-18T07:36:32.895Z,51.27
2019-01-18T07:39:01.037Z,51.26
2019-01-18T07:41:29.175Z,51.23
2019-01-18T07:43:57.320Z,51.17
2019-01-18T07:46:25.455Z,51.24
2019-01-18T07:48:53.653Z,51.21
2019-01-18T07:51:21.789Z,51.13
2019-01-18T07:53:49.949Z,50.99
2019-01-18T07:56:18.071Z,50.94
2019-01-18T07:58:46.233Z,50.76
2019-01-18T08:01:14.377Z,50.90
2019-01-18T08:03:42.512Z,50.82
2019-01-18T08:06:10.654Z,50.79
2019-01-18T08:08:38.784Z,50.76
2019-01-18T08:11:06.966Z,50.77
2019-01-18T08:13:35.100Z,50.89
2019-01-18T08:16:03.243Z,50.71
2019-01-18T08:18:31.376Z,50.84
2019-01-18T08:20:59.513Z,50.70
2019-01-18T08:23:27.672Z,50.94
2019-01-18T08:25:55.822Z,50.90
2019-01-18T08:28:23.956Z,50.83
2019-01-18T08:30:52.107Z,50.78
2019-01-18T08:33:20.253Z,50.89
2019-01-18T08:35:48.393Z,50.99
2019-01-18T08:38:16.532Z,50.94
2019-01-18T08:40:44.651Z,50.67
2019-01-18T08:43:13.836Z,50.66
2019-01-18T08:45:46.080Z,50.75
2019-01-18T08:48:14.226Z,50.79
2019-01-18T08:50:42.379Z,50.74
2019-01-18T08:53:10.544Z,50.63
2019-01-18T08:55:38.682Z,50.74
2019-01-18T08:58:06.823Z,50.79
2019-01-18T09:00:34.964Z,50.60
2019-01-18T09:03:03.092Z,50.73
2019-01-18T09:05:31.223Z,50.88
2019-01-18T09:07:59.361Z,50.88
2019-01-18T09:10:27.961Z,50.83
2019-01-18T09:12:56.092Z,50.86
2019-01-18T09:15:24.239Z,50.91
2019-01-18T09:17:52.374Z,50.94
2019-01-18T09:20:21.553Z,50.91
2019-01-18T09:22:49.688Z,50.86
2019-01-18T09:25:17.827Z,50.73
2019-01-18T09:27:45.953Z,50.69
2019-01-18T09:30:18.046Z,50.81
2019-01-18T09:32:46.185Z,50.95
2019-01-18T09:35:14.786Z,50.75
2019-01-18T09:37:43.030Z,51.06
2019-01-18T09:40:15.174Z,51.27
2019-01-18T09:42:43.448Z,51.24
2019-01-18T09:45:11.638Z,51.31
2019-01-18T09:47:39.825Z,51.34
2019-01-18T09:50:09.811Z,51.46
2019-01-18T09:52:37.973Z,51.37
2019-01-18T09:55:06.282Z,51.36
2019-01-18T09:57:34.473Z,51.45
2019-01-18T10:00:02.668Z,51.41
2019-01-18T10:02:30.886Z,51.37
2019-01-18T10:04:59.061Z,51.42
2019-01-18T10:07:27.310Z,51.49
2019-01-18T10:09:55.496Z,51.32
2019-01-18T10:12:23.786Z,51.29
2019-01-18T10:17:26.067Z,51.28
2019-01-18T10:20:13.781Z,51.45
2019-01-18T10:22:42.010Z,51.52
2019-01-18T10:25:11.078Z,51.62
2019-01-18T10:27:39.381Z,51.49
2019-01-18T10:30:08.889Z,51.49
2019-01-18T10:32:37.129Z,51.60
2019-01-18T10:35:05.361Z,51.65
2019-01-18T10:37:33.575Z,51.57
2019-01-18T10:40:01.738Z,51.50
2019-01-18T10:42:29.982Z,51.46
2019-01-18T10:44:58.152Z,51.45
2019-01-18T10:47:26.345Z,51.57
2019-01-18T10:49:54.640Z,51.62
2019-01-18T10:52:22.792Z,51.57
2019-01-18T10:54:51.032Z,51.51
2019-01-18T10:57:19.240Z,51.57
2019-01-18T10:59:47.559Z,51.56
2019-01-18T11:02:15.704Z,51.69
2019-01-18T11:04:43.855Z,51.68
2019-01-18T11:07:12.000Z,51.71
2019-01-18T11:09:40.160Z,51.73
2019-01-18T11:12:08.317Z,51.72
2019-01-18T11:14:36.479Z,51.81
2019-01-18T11:17:04.632Z,51.70
2019-01-18T11:19:32.767Z,51.78
2019-01-18T11:22:01.003Z,51.51
2019-01-18T11:24:29.169Z,51.69
2019-01-18T11:26:57.451Z,51.78
2019-01-18T11:29:25.612Z,51.57
2019-01-18T11:31:53.743Z,51.35
2019-01-18T11:34:21.884Z,51.35
2019-01-18T11:36:50.169Z,51.27
2019-01-18T11:39:18.324Z,51.55
2019-01-18T11:41:46.463Z,51.70
2019-01-18T11:44:14.608Z,51.65
2019-01-18T11:46:42.984Z,51.83
2019-01-18T11:51:58.417Z,51.85
2019-01-18T11:54:26.548Z,51.83
2019-01-18T11:56:54.722Z,51.64
2019-01-18T11:59:22.877Z,51.88
2019-01-18T12:01:51.026Z,51.99
2019-01-18T12:04:19.181Z,51.85
2019-01-18T12:06:47.354Z,51.93
2019-01-18T12:09:15.464Z,51.84
2019-01-18T12:11:43.655Z,51.97
2019-01-18T12:14:11.820Z,52.00
2019-01-18T12:16:39.942Z,52.00
2019-01-18T12:19:27.014Z,51.94
2019-01-18T12:22:14.246Z,51.83
2019-01-18T12:24:42.420Z,51.79
2019-01-18T12:27:10.545Z,51.80
2019-01-18T12:29:57.825Z,51.80
2019-01-18T12:32:28.865Z,51.73
2019-01-18T12:34:55.773Z,51.70
2019-01-18T12:37:23.903Z,51.68
2019-01-18T12:39:52.047Z,51.74
2019-01-18T12:42:20.212Z,51.56
2019-01-18T12:44:48.372Z,51.62
2019-01-18T12:50:03.672Z,51.65
2019-01-18T12:52:50.893Z,51.49
2019-01-18T12:55:19.056Z,51.74
2019-01-18T13:00:54.820Z,51.55
2019-01-18T13:03:22.990Z,51.59
2019-01-18T13:05:52.187Z,51.64
2019-01-18T13:08:20.339Z,51.59
2019-01-18T13:10:48.493Z,51.75
2019-01-18T13:13:16.708Z,51.80
2019-01-18T13:16:03.958Z,51.84
2019-01-18T13:18:32.666Z,51.79
2019-01-18T13:21:00.811Z,51.85
2019-01-18T13:23:28.943Z,52.08
2019-01-18T13:25:57.122Z,52.03
2019-01-18T13:28:25.252Z,52.23
2019-01-18T13:30:53.396Z,52.10
2019-01-18T13:33:21.562Z,52.09
2019-01-18T13:35:49.733Z,52.05
2019-01-18T13:38:17.862Z,52.12
2019-01-18T13:40:46.019Z,52.18
2019-01-18T13:43:33.056Z,52.09
2019-01-18T13:46:01.244Z,52.23
2019-01-18T13:48:29.380Z,52.24
2019-01-18T13:50:57.542Z,52.39
2019-01-18T13:53:25.752Z,52.38
2019-01-18T13:55:54.035Z,52.41
2019-01-18T13:58:22.276Z,52.44
2019-01-18T14:00:50.461Z,52.39
2019-01-18T14:03:18.645Z,52.37
2019-01-18T14:05:46.893Z,52.40
2019-01-18T14:08:15.041Z,52.53
2019-01-18T14:10:43.270Z,52.45
2019-01-18T14:13:11.404Z,52.43
2019-01-18T14:15:39.543Z,52.40
2019-01-18T14:18:07.687Z,52.37
2019-01-18T14:20:35.826Z,52.37
2019-01-18T14:25:37.413Z,52.28
2019-01-18T14:28:05.569Z,52.33
2019-01-18T14:30:35.740Z,52.33
2019-01-18T14:33:03.536Z,52.34
2019-01-18T14:35:31.720Z,52.40
2019-01-18T14:37:59.954Z,52.30
2019-01-18T14:40:28.096Z,52.41
2019-01-18T14:42:56.376Z,52.41
2019-01-18T14:45:28.598Z,52.49
2019-01-18T14:47:56.757Z,52.41
2019-01-18T14:50:24.964Z,52.33
2019-01-18T14:52:53.147Z,52.39
2019-01-18T14:55:21.341Z,52.28
2019-01-18T14:57:49.579Z,52.30
2019-01-18T15:00:19.081Z,52.34
2019-01-18T15:02:47.834Z,52.17
2019-01-18T15:05:16.631Z,52.54
2019-01-18T15:07:44.969Z,52.68
2019-01-18T15:10:15.273Z,52.65
2019-01-18T15:12:43.703Z,52.62
2019-01-18T15:15:12.950Z,52.65
2019-01-18T15:17:41.100Z,52.55
2019-01-18T15:20:12.104Z,52.43
2019-01-18T15:22:40.351Z,52.52
2019-01-18T15:25:08.623Z,52.51
2019-01-18T15:27:36.871Z,52.48
2019-01-18T15:30:06.959Z,52.50
2019-01-18T15:32:35.397Z,52.43
2019-01-18T15:35:03.613Z,52.33
2019-01-18T15:37:31.821Z,52.57
2019-01-18T15:40:00.139Z,52.83
2019-01-18T15:42:28.489Z,52.90
2019-01-18T15:44:56.645Z,53.02
2019-01-18T15:47:25.140Z,53.04
2019-01-18T15:49:53.302Z,53.06
2019-01-18T15:52:40.575Z,53.08
2019-01-18T15:55:09.078Z,52.95
2019-01-18T15:57:37.462Z,53.12
2019-01-18T16:00:06.654Z,53.26
2019-01-18T16:02:34.855Z,53.27
2019-01-18T16:05:03.067Z,53.34
2019-01-18T16:07:50.350Z,53.38
2019-01-18T16:10:18.577Z,53.39
2019-01-18T16:12:46.734Z,53.44
2019-01-18T16:15:15.036Z,53.29
2019-01-18T16:17:46.039Z,53.33
2019-01-18T16:20:15.264Z,53.26
2019-01-18T16:22:43.465Z,53.17
2019-01-18T16:25:19.112Z,53.23
2019-01-18T16:27:48.370Z,53.27
2019-01-18T16:30:17.309Z,53.24
2019-01-18T16:32:45.480Z,53.37
2019-01-18T16:35:14.526Z,53.18
2019-01-18T16:37:42.735Z,53.27
2019-01-18T16:40:12.596Z,53.67
2019-01-18T16:42:40.860Z,53.43
2019-01-18T16:45:09.327Z,53.53
2019-01-18T16:47:37.482Z,53.60
2019-01-18T16:50:06.021Z,53.84
2019-01-18T16:52:34.212Z,53.78
2019-01-18T16:55:02.384Z,53.63
2019-01-18T16:57:30.533Z,53.83
2019-01-18T16:59:58.692Z,54.04
2019-01-18T17:02:26.856Z,53.74
2019-01-18T17:04:55.036Z,53.77
2019-01-18T17:07:23.200Z,53.81
2019-01-18T17:09:51.356Z,53.94
2019-01-18T17:12:19.537Z,54.13
2019-01-18T17:14:47.773Z,53.95
2019-01-18T17:17:15.996Z,53.83
2019-01-18T17:19:44.264Z,53.86
2019-01-18T17:22:12.441Z,53.97
2019-01-18T17:24:40.736Z,53.87
2019-01-18T17:27:08.910Z,53.75
2019-01-18T17:29:37.166Z,53.95
2019-01-18T17:32:05.456Z,53.83
2019-01-18T17:34:33.653Z,53.78
2019-01-18T17:37:30.176Z,53.84
2019-01-18T17:40:05.285Z,53.79
2019-01-18T17:42:51.420Z,54.05
2019-01-18T17:45:47.806Z,53.84
2019-01-18T17:48:21.637Z,53.87
2019-01-18T17:50:57.007Z,53.98
2019-01-18T17:53:31.401Z,53.84
2019-01-18T17:56:15.288Z,53.91
2019-01-18T17:59:18.044Z,54.13
2019-01-18T18:02:02.524Z,54.11
2019-01-18T18:04:43.452Z,54.13
2019-01-18T18:07:19.017Z,53.63
2019-01-18T18:10:09.383Z,53.62
2019-01-18T18:12:42.501Z,53.72
2019-01-18T18:15:32.849Z,53.70
2019-01-18T18:18:26.038Z,53.80
2019-01-18T18:21:15.013Z,53.74
2019-01-18T18:23:55.680Z,54.09
2019-01-18T18:26:34.445Z,54.04
2019-01-18T18:29:16.001Z,54.04
2019-01-18T18:32:06.052Z,54.13
2019-01-18T18:34:42.018Z,54.14
2019-01-18T18:37:41.405Z,54.10
2019-01-18T18:40:27.220Z,54.20
2019-01-18T18:43:00.205Z,54.08
2019-01-18T18:46:02.549Z,54.05
2019-01-18T18:48:34.117Z,53.91
2019-01-18T18:51:20.305Z,53.78
2019-01-18T18:54:06.489Z,54.12
2019-01-18T18:56:48.316Z,54.18
2019-01-18T18:59:24.278Z,53.80
2019-01-18T19:02:23.880Z,54.16
2019-01-18T19:05:04.223Z,53.93
2019-01-18T19:07:38.061Z,54.06
2019-01-18T19:10:16.881Z,54.19
2019-01-18T19:12:58.589Z,54.10
2019-01-18T19:15:47.464Z,53.89
2019-01-18T19:18:34.733Z,54.06
2019-01-18T19:21:37.781Z,53.99
2019-01-18T19:24:15.953Z,53.80
2019-01-18T19:27:15.379Z,53.82
2019-01-18T19:29:55.893Z,53.76
2019-01-18T19:32:42.098Z,53.83
2019-01-18T19:35:41.937Z,53.77
2019-01-18T19:38:25.438Z,54.03
2019-01-18T19:41:03.634Z,53.84
2019-01-18T19:44:06.199Z,53.94
2019-01-18T19:46:42.542Z,53.70
2019-01-18T19:49:32.048Z,53.74
2019-01-18T19:52:08.165Z,53.62
2019-01-18T19:55:01.276Z,53.58
2019-01-18T19:57:48.625Z,53.92
2019-01-18T20:00:35.946Z,53.94
2019-01-18T20:03:23.221Z,53.67
2019-01-18T20:06:09.258Z,53.90
2019-01-18T20:08:40.317Z,53.78
2019-01-18T20:11:26.574Z,53.84
2019-01-18T20:14:03.200Z,53.74
2019-01-18T20:16:50.502Z,53.42
2019-01-18T20:19:53.249Z,53.58
2019-01-18T20:22:25.870Z,53.73
2019-01-18T20:25:13.153Z,53.75
2019-01-18T20:27:59.483Z,53.65
2019-01-18T20:30:43.980Z,53.81
2019-01-18T20:33:22.520Z,53.70
2019-01-18T20:36:09.855Z,53.62
2019-01-18T20:38:57.158Z,53.77
2019-01-18T20:41:43.186Z,53.79
2019-01-18T20:44:18.468Z,53.90
2019-01-18T20:47:08.868Z,53.71
2019-01-18T20:49:59.021Z,53.96
2019-01-18T20:52:46.306Z,54.18
2019-01-18T20:55:20.621Z,53.88
2019-01-18T20:58:10.914Z,53.87
2019-01-18T21:00:42.129Z,53.73
2019-01-18T21:03:17.718Z,53.70
2019-01-18T21:06:23.412Z,53.77
2019-01-18T21:08:57.754Z,53.75
2019-01-18T21:11:38.282Z,54.11
2019-01-18T21:14:20.904Z,53.91
2019-01-18T21:16:58.400Z,53.85
2019-01-18T21:19:51.731Z,53.77
2019-01-18T21:22:39.072Z,53.70
2019-01-18T21:25:28.350Z,53.69
2019-01-18T21:28:30.871Z,54.01
2019-01-18T21:31:29.850Z,53.99
2019-01-18T21:34:18.754Z,54.01
2019-01-18T21:37:09.248Z,53.88
2019-01-18T21:39:55.503Z,53.94
2019-01-18T21:42:36.262Z,53.98
2019-01-18T21:45:26.313Z,53.85
2019-01-18T21:48:29.033Z,54.05
2019-01-18T21:51:19.244Z,53.99
2019-01-18T21:53:50.643Z,53.96
2019-01-18T21:56:40.953Z,54.23
2019-01-18T21:59:13.022Z,53.99
2019-01-18T22:01:54.762Z,53.91
2019-01-18T22:04:40.328Z,54.00
2019-01-18T22:07:26.268Z,53.94
2019-01-18T22:10:05.078Z,54.06
2019-01-18T22:13:07.580Z,53.89
2019-01-18T22:15:53.526Z,53.90
2019-01-18T22:18:59.189Z,53.76
2019-01-18T22:21:49.565Z,53.68
2019-01-18T22:24:33.761Z,53.92
2019-01-18T22:27:11.442Z,53.95
2019-01-18T22:29:54.718Z,53.74
2019-01-18T22:32:30.384Z,53.54
2019-01-18T22:35:12.718Z,53.48
2019-01-18T22:37:53.573Z,53.40
2019-01-18T22:40:59.337Z,53.49
2019-01-18T22:43:46.664Z,53.38
2019-01-18T22:46:32.684Z,53.42
2019-01-18T22:49:25.968Z,53.51
2019-01-18T22:52:01.951Z,53.58
2019-01-18T22:54:58.334Z,53.52
2019-01-18T22:57:38.632Z,53.58
2019-01-18T23:00:36.363Z,53.88
2019-01-18T23:03:11.037Z,53.82
2019-01-18T23:05:46.261Z,53.55
2019-01-18T23:08:32.343Z,53.42
2019-01-18T23:11:22.007Z,53.41
2019-01-18T23:13:56.880Z,53.45
2019-01-18T23:16:50.115Z,53.33
2019-01-18T23:19:46.340Z,53.38
2019-01-18T23:22:27.047Z,53.35
2019-01-18T23:25:02.572Z,53.46
2019-01-18T23:27:48.510Z,53.58
2019-01-18T23:30:22.327Z,53.48
2019-01-18T23:32:54.665Z,53.45
2019-01-18T23:35:42.048Z,53.36
2019-01-18T23:38:17.634Z,53.36
2019-01-18T23:40:58.122Z,53.51
2019-01-18T23:43:29.459Z,53.62
2019-01-18T23:46:15.407Z,53.50
2019-01-18T23:49:01.566Z,53.43
2019-01-18T23:51:36.365Z,53.42
2019-01-18T23:54:13.086Z,53.35
2019-01-18T23:56:46.421Z,53.39
2019-01-18T23:59:37.748Z,53.20
